Bramble, Montserrat

12:59 PM AST on July 29, 2016 (GMT -0400)
Geralds | | Change Station

Elev 551 ft 16.79 °N, 62.19 °W | Updated -19 second ago

Scattered Clouds
Scattered Clouds
84 °F
Feels Like 91 °F
N
17
Wind Variable Wind from ESE

Today
High -- | Low -- °F
--% Chance of Precip.
Yesterday
High -- | Low -- °F
Precip. -- in
Pressure 30.01 in
Visibility 6.2 miles
Clouds Scattered Clouds 2400 ft
Scattered Clouds 26000 ft
Heat Index 91 °F
Dew Point 73 °F
Humidity 70%
Rainfall 0.00 in
Snow Depth Not available.
5:48 AM 6:41 PM
Waning Crescent, 20% visible
METAR TRPG 291700Z 11015KT 9999 SCT024 SCT260 29/23 Q1016
Pressure 30.01 in
Visibility 6.2 miles
Clouds Scattered Clouds 2400 ft
Scattered Clouds 26000 ft
Heat Index 91 °F
Dew Point 73 °F
Humidity 70%
Rainfall 0.00 in
Snow Depth Not available.
5:48 AM 6:41 PM
Waning Crescent, 20% visible
METAR TRPG 291700Z 11015KT 9999 SCT024 SCT260 29/23 Q1016

10-Day Weather Forecast

No radar image for this location.
×

Almanac

Astronomy

Jul. 29, 2016 Rise Set
Actual Time
Civil Twilight
Nautical Twilight
Astronomical Twilight
Moon
Length of Visible Light
Length of Day
Tomorrow will be .
, % of the Moon is Illuminated

Today's Extremes

Country Highs Country Lows

Community

WunderPhotos

Upload Photos

1,928,378 photos uploaded!

WunderBlog® & News

Nearby

Air Quality

  Air Quality AQ Index Pollutant
Not available.

Snow Depth

Station Depth Elevation

Earthquake Activity

City Distance Mag. Time & Date
Minimum magnitude displayed is 2.5.

Coastal Water Temperatures

Place Temperature

Stations

Nearby Weather Stations

Station Location Temp. Windchill Dew Point Humidity Wind Precip. Elev Updated Type